sensor_id;sensor_type;location;lat;lon;timestamp;P1;durP1;ratioP1;P2;durP2;ratioP2
35239;SDS011;21376;50.954;4.716;2023-02-28T00:00:24;20.55;;;12.15;;
35239;SDS011;21376;50.954;4.716;2023-02-28T00:02:51;24.63;;;12.65;;
35239;SDS011;21376;50.954;4.716;2023-02-28T00:05:22;23.95;;;12.18;;
35239;SDS011;21376;50.954;4.716;2023-02-28T00:07:59;20.40;;;12.45;;
35239;SDS011;21376;50.954;4.716;2023-02-28T00:10:29;20.42;;;12.20;;
35239;SDS011;21376;50.954;4.716;2023-02-28T00:12:59;26.60;;;12.57;;
35239;SDS011;21376;50.954;4.716;2023-02-28T00:15:31;24.58;;;12.55;;
35239;SDS011;21376;50.954;4.716;2023-02-28T00:18:01;21.98;;;12.40;;
35239;SDS011;21376;50.954;4.716;2023-02-28T00:20:31;23.33;;;12.55;;
35239;SDS011;21376;50.954;4.716;2023-02-28T00:23:00;22.08;;;12.45;;
35239;SDS011;21376;50.954;4.716;2023-02-28T00:25:36;21.17;;;13.02;;
35239;SDS011;21376;50.954;4.716;2023-02-28T00:28:04;18.15;;;12.63;;
35239;SDS011;21376;50.954;4.716;2023-02-28T00:30:38;21.70;;;12.45;;
35239;SDS011;21376;50.954;4.716;2023-02-28T00:33:07;22.80;;;12.15;;
35239;SDS011;21376;50.954;4.716;2023-02-28T00:35:33;21.10;;;13.32;;
35239;SDS011;21376;50.954;4.716;2023-02-28T00:40:44;22.40;;;13.30;;
35239;SDS011;21376;50.954;4.716;2023-02-28T00:43:10;23.17;;;13.32;;
35239;SDS011;21376;50.954;4.716;2023-02-28T00:45:37;21.10;;;13.00;;
35239;SDS011;21376;50.954;4.716;2023-02-28T00:48:09;23.58;;;13.55;;
35239;SDS011;21376;50.954;4.716;2023-02-28T00:50:37;26.98;;;14.25;;
35239;SDS011;21376;50.954;4.716;2023-02-28T00:55:35;26.73;;;15.27;;
35239;SDS011;21376;50.954;4.716;2023-02-28T00:58:03;33.08;;;15.23;;
35239;SDS011;21376;50.954;4.716;2023-02-28T01:00:33;22.02;;;14.77;;
35239;SDS011;21376;50.954;4.716;2023-02-28T01:05:30;24.77;;;13.20;;
35239;SDS011;21376;50.954;4.716;2023-02-28T01:12:59;22.20;;;12.55;;
35239;SDS011;21376;50.954;4.716;2023-02-28T01:15:28;20.63;;;12.10;;
35239;SDS011;21376;50.954;4.716;2023-02-28T01:17:57;24.45;;;13.63;;
35239;SDS011;21376;50.954;4.716;2023-02-28T01:20:25;27.10;;;13.40;;
35239;SDS011;21376;50.954;4.716;2023-02-28T01:22:50;25.35;;;13.23;;
35239;SDS011;21376;50.954;4.716;2023-02-28T01:25:19;19.63;;;13.23;;
35239;SDS011;21376;50.954;4.716;2023-02-28T01:27:48;24.65;;;13.75;;
35239;SDS011;21376;50.954;4.716;2023-02-28T01:32:45;26.73;;;14.23;;
35239;SDS011;21376;50.954;4.716;2023-02-28T01:35:13;28.27;;;15.13;;
35239;SDS011;21376;50.954;4.716;2023-02-28T01:37:42;30.05;;;15.90;;
35239;SDS011;21376;50.954;4.716;2023-02-28T01:40:17;24.10;;;14.77;;
35239;SDS011;21376;50.954;4.716;2023-02-28T01:42:46;24.13;;;14.65;;
35239;SDS011;21376;50.954;4.716;2023-02-28T01:48:05;26.88;;;15.13;;
35239;SDS011;21376;50.954;4.716;2023-02-28T01:50:36;23.27;;;14.00;;
35239;SDS011;21376;50.954;4.716;2023-02-28T01:53:07;22.38;;;13.60;;
35239;SDS011;21376;50.954;4.716;2023-02-28T01:55:40;27.73;;;14.13;;
35239;SDS011;21376;50.954;4.716;2023-02-28T02:00:58;27.20;;;14.70;;
35239;SDS011;21376;50.954;4.716;2023-02-28T02:05:57;25.67;;;14.68;;
35239;SDS011;21376;50.954;4.716;2023-02-28T02:08:26;29.45;;;15.07;;
35239;SDS011;21376;50.954;4.716;2023-02-28T02:10:58;23.38;;;14.10;;
35239;SDS011;21376;50.954;4.716;2023-02-28T02:25:56;26.90;;;15.20;;
35239;SDS011;21376;50.954;4.716;2023-02-28T02:28:51;27.92;;;14.40;;
35239;SDS011;21376;50.954;4.716;2023-02-28T02:37:41;25.48;;;13.73;;
35239;SDS011;21376;50.954;4.716;2023-02-28T02:46:28;27.13;;;14.52;;
35239;SDS011;21376;50.954;4.716;2023-02-28T02:48:56;24.10;;;14.02;;
35239;SDS011;21376;50.954;4.716;2023-02-28T02:51:28;23.83;;;15.23;;
35239;SDS011;21376;50.954;4.716;2023-02-28T02:56:38;30.40;;;15.35;;
35239;SDS011;21376;50.954;4.716;2023-02-28T02:59:09;29.65;;;15.88;;
35239;SDS011;21376;50.954;4.716;2023-02-28T03:01:40;28.35;;;16.67;;
35239;SDS011;21376;50.954;4.716;2023-02-28T03:04:09;34.28;;;16.23;;
35239;SDS011;21376;50.954;4.716;2023-02-28T03:09:12;34.42;;;16.20;;
35239;SDS011;21376;50.954;4.716;2023-02-28T03:23:12;30.33;;;17.27;;
35239;SDS011;21376;50.954;4.716;2023-02-28T03:25:59;28.60;;;15.98;;
35239;SDS011;21376;50.954;4.716;2023-02-28T03:36:57;33.13;;;16.92;;
35239;SDS011;21376;50.954;4.716;2023-02-28T03:39:42;33.80;;;17.45;;
35239;SDS011;21376;50.954;4.716;2023-02-28T03:42:19;30.63;;;17.80;;
35239;SDS011;21376;50.954;4.716;2023-02-28T03:45:01;37.50;;;17.95;;
35239;SDS011;21376;50.954;4.716;2023-02-28T03:56:20;32.88;;;17.65;;
35239;SDS011;21376;50.954;4.716;2023-02-28T04:04:40;38.20;;;20.35;;
35239;SDS011;21376;50.954;4.716;2023-02-28T04:07:19;40.28;;;20.42;;
35239;SDS011;21376;50.954;4.716;2023-02-28T04:09:49;40.60;;;19.38;;
35239;SDS011;21376;50.954;4.716;2023-02-28T04:12:14;36.22;;;18.45;;
35239;SDS011;21376;50.954;4.716;2023-02-28T04:14:42;31.58;;;18.67;;
35239;SDS011;21376;50.954;4.716;2023-02-28T04:17:11;30.60;;;18.85;;
35239;SDS011;21376;50.954;4.716;2023-02-28T04:19:40;33.00;;;17.30;;
35239;SDS011;21376;50.954;4.716;2023-02-28T04:22:09;33.85;;;17.90;;
35239;SDS011;21376;50.954;4.716;2023-02-28T04:24:35;33.20;;;17.25;;
35239;SDS011;21376;50.954;4.716;2023-02-28T04:29:53;32.25;;;16.83;;
35239;SDS011;21376;50.954;4.716;2023-02-28T04:34:50;34.28;;;18.67;;
35239;SDS011;21376;50.954;4.716;2023-02-28T04:37:16;31.10;;;17.98;;
35239;SDS011;21376;50.954;4.716;2023-02-28T04:39:42;34.92;;;18.48;;
35239;SDS011;21376;50.954;4.716;2023-02-28T04:42:08;35.90;;;18.98;;
35239;SDS011;21376;50.954;4.716;2023-02-28T04:44:41;35.28;;;19.10;;
35239;SDS011;21376;50.954;4.716;2023-02-28T04:49:36;30.40;;;18.30;;
35239;SDS011;21376;50.954;4.716;2023-02-28T04:52:04;31.70;;;17.90;;
35239;SDS011;21376;50.954;4.716;2023-02-28T04:54:35;37.13;;;19.42;;
35239;SDS011;21376;50.954;4.716;2023-02-28T04:57:04;39.38;;;21.75;;
35239;SDS011;21376;50.954;4.716;2023-02-28T05:02:09;35.75;;;19.88;;
35239;SDS011;21376;50.954;4.716;2023-02-28T05:04:35;35.95;;;19.45;;
35239;SDS011;21376;50.954;4.716;2023-02-28T05:07:02;34.35;;;18.60;;
35239;SDS011;21376;50.954;4.716;2023-02-28T05:09:31;36.72;;;19.50;;
35239;SDS011;21376;50.954;4.716;2023-02-28T05:11:59;32.58;;;18.85;;
35239;SDS011;21376;50.954;4.716;2023-02-28T05:14:28;43.60;;;19.83;;
35239;SDS011;21376;50.954;4.716;2023-02-28T05:19:28;33.60;;;19.45;;
35239;SDS011;21376;50.954;4.716;2023-02-28T05:21:57;42.92;;;20.55;;
35239;SDS011;21376;50.954;4.716;2023-02-28T05:26:55;39.13;;;20.92;;
35239;SDS011;21376;50.954;4.716;2023-02-28T05:29:26;40.47;;;21.08;;
35239;SDS011;21376;50.954;4.716;2023-02-28T05:31:55;33.63;;;19.67;;
35239;SDS011;21376;50.954;4.716;2023-02-28T05:34:21;35.80;;;21.00;;
35239;SDS011;21376;50.954;4.716;2023-02-28T05:36:50;37.85;;;21.23;;
35239;SDS011;21376;50.954;4.716;2023-02-28T05:42:14;30.25;;;18.85;;
35239;SDS011;21376;50.954;4.716;2023-02-28T05:47:42;37.15;;;20.27;;
35239;SDS011;21376;50.954;4.716;2023-02-28T05:52:50;34.00;;;18.90;;
35239;SDS011;21376;50.954;4.716;2023-02-28T05:55:16;31.48;;;18.58;;
35239;SDS011;21376;50.954;4.716;2023-02-28T05:57:44;34.58;;;17.27;;
35239;SDS011;21376;50.954;4.716;2023-02-28T06:02:42;44.35;;;19.10;;
35239;SDS011;21376;50.954;4.716;2023-02-28T06:07:47;29.55;;;18.38;;
35239;SDS011;21376;50.954;4.716;2023-02-28T06:12:45;33.17;;;17.50;;
35239;SDS011;21376;50.954;4.716;2023-02-28T06:15:16;31.25;;;16.80;;
35239;SDS011;21376;50.954;4.716;2023-02-28T06:17:44;29.02;;;17.48;;
35239;SDS011;21376;50.954;4.716;2023-02-28T06:20:16;31.33;;;18.30;;
35239;SDS011;21376;50.954;4.716;2023-02-28T06:22:44;29.50;;;17.83;;
35239;SDS011;21376;50.954;4.716;2023-02-28T06:25:10;28.20;;;17.38;;
35239;SDS011;21376;50.954;4.716;2023-02-28T06:27:36;31.15;;;17.25;;
35239;SDS011;21376;50.954;4.716;2023-02-28T06:30:02;34.17;;;18.63;;
35239;SDS011;21376;50.954;4.716;2023-02-28T06:32:31;31.60;;;16.80;;
35239;SDS011;21376;50.954;4.716;2023-02-28T06:35:03;30.23;;;17.52;;
35239;SDS011;21376;50.954;4.716;2023-02-28T06:37:30;30.55;;;17.90;;
35239;SDS011;21376;50.954;4.716;2023-02-28T06:39:56;29.55;;;18.05;;
35239;SDS011;21376;50.954;4.716;2023-02-28T06:42:24;32.20;;;18.58;;
35239;SDS011;21376;50.954;4.716;2023-02-28T06:44:54;33.63;;;18.85;;
35239;SDS011;21376;50.954;4.716;2023-02-28T06:47:21;29.90;;;18.50;;
35239;SDS011;21376;50.954;4.716;2023-02-28T06:52:18;29.38;;;18.08;;
35239;SDS011;21376;50.954;4.716;2023-02-28T06:57:27;29.13;;;17.65;;
35239;SDS011;21376;50.954;4.716;2023-02-28T06:59:58;29.73;;;17.33;;
35239;SDS011;21376;50.954;4.716;2023-02-28T07:02:36;27.88;;;16.95;;
35239;SDS011;21376;50.954;4.716;2023-02-28T07:05:05;30.70;;;17.05;;
35239;SDS011;21376;50.954;4.716;2023-02-28T07:10:01;25.25;;;16.88;;
35239;SDS011;21376;50.954;4.716;2023-02-28T07:12:44;29.55;;;17.67;;
35239;SDS011;21376;50.954;4.716;2023-02-28T07:15:14;29.90;;;17.90;;
35239;SDS011;21376;50.954;4.716;2023-02-28T07:17:41;33.90;;;17.25;;
35239;SDS011;21376;50.954;4.716;2023-02-28T07:25:05;29.98;;;16.92;;
35239;SDS011;21376;50.954;4.716;2023-02-28T07:27:37;28.73;;;14.93;;
35239;SDS011;21376;50.954;4.716;2023-02-28T07:32:34;16.77;;;11.30;;
35239;SDS011;21376;50.954;4.716;2023-02-28T07:35:02;19.77;;;10.75;;
35239;SDS011;21376;50.954;4.716;2023-02-28T07:37:37;15.65;;;10.85;;
35239;SDS011;21376;50.954;4.716;2023-02-28T07:40:03;14.63;;;10.60;;
35239;SDS011;21376;50.954;4.716;2023-02-28T07:42:36;12.57;;;9.43;;
35239;SDS011;21376;50.954;4.716;2023-02-28T07:47:36;18.25;;;9.60;;
35239;SDS011;21376;50.954;4.716;2023-02-28T07:50:07;13.93;;;9.20;;
35239;SDS011;21376;50.954;4.716;2023-02-28T07:52:41;15.75;;;9.20;;
35239;SDS011;21376;50.954;4.716;2023-02-28T07:55:09;12.18;;;8.90;;
35239;SDS011;21376;50.954;4.716;2023-02-28T07:57:39;14.43;;;8.48;;
35239;SDS011;21376;50.954;4.716;2023-02-28T08:00:12;12.70;;;8.15;;
35239;SDS011;21376;50.954;4.716;2023-02-28T08:02:39;14.40;;;8.07;;
35239;SDS011;21376;50.954;4.716;2023-02-28T08:05:05;12.55;;;8.23;;
35239;SDS011;21376;50.954;4.716;2023-02-28T08:07:39;13.55;;;7.18;;
35239;SDS011;21376;50.954;4.716;2023-02-28T08:12:50;11.73;;;8.07;;
35239;SDS011;21376;50.954;4.716;2023-02-28T08:15:16;9.23;;;6.68;;
35239;SDS011;21376;50.954;4.716;2023-02-28T08:17:42;15.32;;;7.30;;
35239;SDS011;21376;50.954;4.716;2023-02-28T08:20:07;9.23;;;6.93;;
35239;SDS011;21376;50.954;4.716;2023-02-28T08:22:35;12.65;;;6.82;;
35239;SDS011;21376;50.954;4.716;2023-02-28T08:25:01;10.57;;;6.13;;
35239;SDS011;21376;50.954;4.716;2023-02-28T08:27:26;13.38;;;7.57;;
35239;SDS011;21376;50.954;4.716;2023-02-28T08:29:53;10.88;;;6.40;;
35239;SDS011;21376;50.954;4.716;2023-02-28T08:32:23;7.80;;;5.55;;
35239;SDS011;21376;50.954;4.716;2023-02-28T08:34:48;7.13;;;5.32;;
35239;SDS011;21376;50.954;4.716;2023-02-28T08:37:14;8.07;;;5.40;;
35239;SDS011;21376;50.954;4.716;2023-02-28T08:39:43;10.23;;;5.70;;
35239;SDS011;21376;50.954;4.716;2023-02-28T08:42:12;7.40;;;5.55;;
35239;SDS011;21376;50.954;4.716;2023-02-28T08:44:38;6.80;;;4.80;;
35239;SDS011;21376;50.954;4.716;2023-02-28T08:47:06;9.55;;;5.32;;
35239;SDS011;21376;50.954;4.716;2023-02-28T08:52:04;7.18;;;4.72;;
35239;SDS011;21376;50.954;4.716;2023-02-28T08:54:33;6.20;;;4.82;;
35239;SDS011;21376;50.954;4.716;2023-02-28T08:57:02;6.95;;;4.65;;
35239;SDS011;21376;50.954;4.716;2023-02-28T08:59:29;5.68;;;4.50;;
35239;SDS011;21376;50.954;4.716;2023-02-28T09:01:58;8.52;;;4.72;;
35239;SDS011;21376;50.954;4.716;2023-02-28T09:04:24;7.65;;;4.80;;
35239;SDS011;21376;50.954;4.716;2023-02-28T09:06:52;8.25;;;4.68;;
35239;SDS011;21376;50.954;4.716;2023-02-28T09:09:20;6.25;;;4.43;;
35239;SDS011;21376;50.954;4.716;2023-02-28T09:11:52;7.18;;;4.32;;
35239;SDS011;21376;50.954;4.716;2023-02-28T09:14:25;7.65;;;4.20;;
35239;SDS011;21376;50.954;4.716;2023-02-28T09:16:51;5.88;;;3.85;;
35239;SDS011;21376;50.954;4.716;2023-02-28T09:19:18;5.95;;;3.83;;
35239;SDS011;21376;50.954;4.716;2023-02-28T09:21:56;9.93;;;3.72;;
35239;SDS011;21376;50.954;4.716;2023-02-28T09:24:23;6.05;;;4.25;;
35239;SDS011;21376;50.954;4.716;2023-02-28T09:29:36;6.88;;;4.45;;
35239;SDS011;21376;50.954;4.716;2023-02-28T09:32:02;6.05;;;3.83;;
35239;SDS011;21376;50.954;4.716;2023-02-28T09:34:30;5.82;;;4.00;;
35239;SDS011;21376;50.954;4.716;2023-02-28T09:37:07;5.68;;;3.35;;
35239;SDS011;21376;50.954;4.716;2023-02-28T09:39:33;5.45;;;3.42;;
35239;SDS011;21376;50.954;4.716;2023-02-28T09:42:11;5.88;;;4.13;;
35239;SDS011;21376;50.954;4.716;2023-02-28T09:44:47;4.80;;;3.47;;
35239;SDS011;21376;50.954;4.716;2023-02-28T09:50:07;4.43;;;3.40;;
35239;SDS011;21376;50.954;4.716;2023-02-28T09:52:57;3.22;;;2.92;;
35239;SDS011;21376;50.954;4.716;2023-02-28T09:57:57;6.85;;;2.88;;
35239;SDS011;21376;50.954;4.716;2023-02-28T10:00:34;2.47;;;2.05;;
35239;SDS011;21376;50.954;4.716;2023-02-28T10:09:03;2.67;;;2.00;;
35239;SDS011;21376;50.954;4.716;2023-02-28T10:11:39;4.05;;;2.47;;
35239;SDS011;21376;50.954;4.716;2023-02-28T10:14:26;2.85;;;2.28;;
35239;SDS011;21376;50.954;4.716;2023-02-28T10:17:06;2.72;;;2.38;;
35239;SDS011;21376;50.954;4.716;2023-02-28T10:22:53;4.82;;;3.10;;
35239;SDS011;21376;50.954;4.716;2023-02-28T10:25:28;4.85;;;2.40;;
35239;SDS011;21376;50.954;4.716;2023-02-28T10:28:15;3.17;;;2.17;;
35239;SDS011;21376;50.954;4.716;2023-02-28T10:30:50;8.40;;;3.65;;
35239;SDS011;21376;50.954;4.716;2023-02-28T10:36:01;3.72;;;2.45;;
35239;SDS011;21376;50.954;4.716;2023-02-28T10:38:36;5.80;;;3.50;;
35239;SDS011;21376;50.954;4.716;2023-02-28T10:41:14;18.00;;;9.93;;
35239;SDS011;21376;50.954;4.716;2023-02-28T10:43:46;16.63;;;9.23;;
35239;SDS011;21376;50.954;4.716;2023-02-28T10:46:16;3.88;;;2.20;;
35239;SDS011;21376;50.954;4.716;2023-02-28T10:54:00;9.18;;;5.68;;
35239;SDS011;21376;50.954;4.716;2023-02-28T10:56:31;7.90;;;5.30;;
35239;SDS011;21376;50.954;4.716;2023-02-28T11:01:51;11.38;;;3.05;;
35239;SDS011;21376;50.954;4.716;2023-02-28T11:07:05;6.93;;;4.40;;
35239;SDS011;21376;50.954;4.716;2023-02-28T11:09:41;8.65;;;4.80;;
35239;SDS011;21376;50.954;4.716;2023-02-28T11:17:26;22.58;;;10.77;;
35239;SDS011;21376;50.954;4.716;2023-02-28T11:20:02;15.32;;;7.22;;
35239;SDS011;21376;50.954;4.716;2023-02-28T11:25:28;5.43;;;3.30;;
35239;SDS011;21376;50.954;4.716;2023-02-28T11:28:02;28.10;;;15.52;;
35239;SDS011;21376;50.954;4.716;2023-02-28T11:30:39;6.95;;;3.88;;
35239;SDS011;21376;50.954;4.716;2023-02-28T11:36:08;25.45;;;13.90;;
35239;SDS011;21376;50.954;4.716;2023-02-28T11:38:56;3.67;;;2.63;;
35239;SDS011;21376;50.954;4.716;2023-02-28T11:41:40;4.18;;;2.65;;
35239;SDS011;21376;50.954;4.716;2023-02-28T11:55:39;7.38;;;5.28;;
35239;SDS011;21376;50.954;4.716;2023-02-28T12:15:52;6.70;;;4.28;;
35239;SDS011;21376;50.954;4.716;2023-02-28T12:21:35;4.47;;;3.53;;
35239;SDS011;21376;50.954;4.716;2023-02-28T12:27:40;3.60;;;3.30;;
35239;SDS011;21376;50.954;4.716;2023-02-28T12:32:58;2.65;;;2.42;;
35239;SDS011;21376;50.954;4.716;2023-02-28T12:35:35;3.60;;;2.88;;
35239;SDS011;21376;50.954;4.716;2023-02-28T12:38:26;5.38;;;3.00;;
35239;SDS011;21376;50.954;4.716;2023-02-28T12:41:08;3.78;;;2.50;;
35239;SDS011;21376;50.954;4.716;2023-02-28T12:46:47;3.92;;;2.67;;
35239;SDS011;21376;50.954;4.716;2023-02-28T12:49:23;3.28;;;2.50;;
35239;SDS011;21376;50.954;4.716;2023-02-28T13:06:59;4.97;;;2.90;;
35239;SDS011;21376;50.954;4.716;2023-02-28T13:09:59;3.85;;;2.92;;
35239;SDS011;21376;50.954;4.716;2023-02-28T13:12:30;4.65;;;2.78;;
35239;SDS011;21376;50.954;4.716;2023-02-28T13:17:56;3.95;;;2.95;;
35239;SDS011;21376;50.954;4.716;2023-02-28T13:20:34;3.45;;;2.95;;
35239;SDS011;21376;50.954;4.716;2023-02-28T13:23:35;7.13;;;3.20;;
35239;SDS011;21376;50.954;4.716;2023-02-28T13:26:12;5.85;;;2.75;;
35239;SDS011;21376;50.954;4.716;2023-02-28T13:31:27;5.45;;;3.00;;
35239;SDS011;21376;50.954;4.716;2023-02-28T13:34:12;4.85;;;3.10;;
35239;SDS011;21376;50.954;4.716;2023-02-28T13:36:39;5.95;;;2.83;;
35239;SDS011;21376;50.954;4.716;2023-02-28T13:42:22;4.97;;;3.35;;
35239;SDS011;21376;50.954;4.716;2023-02-28T13:47:35;6.13;;;4.13;;
35239;SDS011;21376;50.954;4.716;2023-02-28T14:02:31;4.30;;;3.60;;
35239;SDS011;21376;50.954;4.716;2023-02-28T14:05:21;5.68;;;3.83;;
35239;SDS011;21376;50.954;4.716;2023-02-28T14:11:15;4.45;;;3.90;;
35239;SDS011;21376;50.954;4.716;2023-02-28T14:13:59;5.82;;;3.95;;
35239;SDS011;21376;50.954;4.716;2023-02-28T14:19:12;5.88;;;4.13;;
35239;SDS011;21376;50.954;4.716;2023-02-28T14:21:58;5.70;;;3.53;;
35239;SDS011;21376;50.954;4.716;2023-02-28T14:30:01;6.32;;;4.18;;
35239;SDS011;21376;50.954;4.716;2023-02-28T14:40:57;6.80;;;3.87;;
35239;SDS011;21376;50.954;4.716;2023-02-28T14:43:32;6.30;;;3.95;;
35239;SDS011;21376;50.954;4.716;2023-02-28T14:51:08;12.93;;;7.60;;
35239;SDS011;21376;50.954;4.716;2023-02-28T14:56:18;5.97;;;3.95;;
35239;SDS011;21376;50.954;4.716;2023-02-28T14:58:59;5.65;;;5.00;;
35239;SDS011;21376;50.954;4.716;2023-02-28T15:04:04;6.28;;;4.40;;
35239;SDS011;21376;50.954;4.716;2023-02-28T15:06:32;7.43;;;4.60;;
35239;SDS011;21376;50.954;4.716;2023-02-28T15:09:15;7.03;;;4.25;;
35239;SDS011;21376;50.954;4.716;2023-02-28T15:11:47;4.95;;;4.25;;
35239;SDS011;21376;50.954;4.716;2023-02-28T15:14:25;7.47;;;4.60;;
35239;SDS011;21376;50.954;4.716;2023-02-28T15:19:51;4.60;;;3.55;;
35239;SDS011;21376;50.954;4.716;2023-02-28T15:22:19;5.20;;;3.80;;
35239;SDS011;21376;50.954;4.716;2023-02-28T15:25:00;7.18;;;4.03;;
35239;SDS011;21376;50.954;4.716;2023-02-28T15:29:59;5.82;;;4.18;;
35239;SDS011;21376;50.954;4.716;2023-02-28T15:32:35;5.55;;;4.30;;
35239;SDS011;21376;50.954;4.716;2023-02-28T15:35:27;6.25;;;4.07;;
35239;SDS011;21376;50.954;4.716;2023-02-28T15:40:40;7.68;;;3.70;;
35239;SDS011;21376;50.954;4.716;2023-02-28T15:45:45;5.93;;;4.10;;
35239;SDS011;21376;50.954;4.716;2023-02-28T15:48:27;8.10;;;4.32;;
35239;SDS011;21376;50.954;4.716;2023-02-28T15:53:59;4.88;;;3.60;;
35239;SDS011;21376;50.954;4.716;2023-02-28T15:56:31;5.85;;;3.75;;
35239;SDS011;21376;50.954;4.716;2023-02-28T15:59:07;5.83;;;3.80;;
35239;SDS011;21376;50.954;4.716;2023-02-28T16:07:39;7.20;;;4.13;;
35239;SDS011;21376;50.954;4.716;2023-02-28T16:12:39;5.97;;;4.03;;
35239;SDS011;21376;50.954;4.716;2023-02-28T16:17:55;6.22;;;4.25;;
35239;SDS011;21376;50.954;4.716;2023-02-28T16:20:29;8.48;;;4.03;;
35239;SDS011;21376;50.954;4.716;2023-02-28T16:22:56;8.57;;;4.55;;
35239;SDS011;21376;50.954;4.716;2023-02-28T16:25:28;8.45;;;3.88;;
35239;SDS011;21376;50.954;4.716;2023-02-28T16:28:08;5.70;;;3.10;;
35239;SDS011;21376;50.954;4.716;2023-02-28T16:30:53;12.18;;;5.47;;
35239;SDS011;21376;50.954;4.716;2023-02-28T16:35:46;4.45;;;3.72;;
35239;SDS011;21376;50.954;4.716;2023-02-28T16:38:15;6.90;;;3.83;;
35239;SDS011;21376;50.954;4.716;2023-02-28T16:40:40;5.93;;;3.92;;
35239;SDS011;21376;50.954;4.716;2023-02-28T16:43:13;5.80;;;3.95;;
35239;SDS011;21376;50.954;4.716;2023-02-28T16:45:46;7.45;;;4.25;;
35239;SDS011;21376;50.954;4.716;2023-02-28T16:48:18;7.80;;;4.05;;
35239;SDS011;21376;50.954;4.716;2023-02-28T16:50:44;8.40;;;4.50;;
35239;SDS011;21376;50.954;4.716;2023-02-28T16:53:10;5.53;;;3.80;;
35239;SDS011;21376;50.954;4.716;2023-02-28T16:55:38;8.23;;;4.55;;
35239;SDS011;21376;50.954;4.716;2023-02-28T16:58:04;5.47;;;4.20;;
35239;SDS011;21376;50.954;4.716;2023-02-28T17:00:31;11.27;;;5.07;;
35239;SDS011;21376;50.954;4.716;2023-02-28T17:03:00;11.50;;;4.40;;
35239;SDS011;21376;50.954;4.716;2023-02-28T17:05:27;9.02;;;4.38;;
35239;SDS011;21376;50.954;4.716;2023-02-28T17:08:03;17.92;;;10.90;;
35239;SDS011;21376;50.954;4.716;2023-02-28T17:10:31;9.75;;;5.80;;
35239;SDS011;21376;50.954;4.716;2023-02-28T17:13:05;8.98;;;6.00;;
35239;SDS011;21376;50.954;4.716;2023-02-28T17:15:39;7.80;;;6.50;;
35239;SDS011;21376;50.954;4.716;2023-02-28T17:18:05;9.50;;;5.68;;
35239;SDS011;21376;50.954;4.716;2023-02-28T17:23:49;7.20;;;4.82;;
35239;SDS011;21376;50.954;4.716;2023-02-28T17:26:16;7.55;;;5.05;;
35239;SDS011;21376;50.954;4.716;2023-02-28T17:29:05;7.32;;;5.07;;
35239;SDS011;21376;50.954;4.716;2023-02-28T17:34:25;6.90;;;4.45;;
35239;SDS011;21376;50.954;4.716;2023-02-28T17:36:51;9.15;;;5.03;;
35239;SDS011;21376;50.954;4.716;2023-02-28T17:39:18;11.50;;;5.07;;
35239;SDS011;21376;50.954;4.716;2023-02-28T17:44:24;10.70;;;5.15;;
35239;SDS011;21376;50.954;4.716;2023-02-28T17:46:50;14.10;;;6.80;;
35239;SDS011;21376;50.954;4.716;2023-02-28T17:49:18;10.30;;;5.78;;
35239;SDS011;21376;50.954;4.716;2023-02-28T17:51:45;11.70;;;6.07;;
35239;SDS011;21376;50.954;4.716;2023-02-28T17:54:13;9.77;;;5.47;;
35239;SDS011;21376;50.954;4.716;2023-02-28T18:02:02;10.18;;;7.30;;
35239;SDS011;21376;50.954;4.716;2023-02-28T18:04:31;18.48;;;10.57;;
35239;SDS011;21376;50.954;4.716;2023-02-28T18:06:59;26.23;;;19.77;;
35239;SDS011;21376;50.954;4.716;2023-02-28T18:09:28;20.67;;;14.00;;
35239;SDS011;21376;50.954;4.716;2023-02-28T18:11:59;15.20;;;10.40;;
35239;SDS011;21376;50.954;4.716;2023-02-28T18:14:31;14.27;;;8.48;;
35239;SDS011;21376;50.954;4.716;2023-02-28T18:16:59;13.75;;;7.97;;
35239;SDS011;21376;50.954;4.716;2023-02-28T18:19:27;12.15;;;7.40;;
35239;SDS011;21376;50.954;4.716;2023-02-28T18:21:58;11.05;;;6.50;;
35239;SDS011;21376;50.954;4.716;2023-02-28T18:24:26;10.35;;;5.72;;
35239;SDS011;21376;50.954;4.716;2023-02-28T18:29:26;9.02;;;6.00;;
35239;SDS011;21376;50.954;4.716;2023-02-28T18:31:53;15.38;;;7.25;;
35239;SDS011;21376;50.954;4.716;2023-02-28T18:34:22;12.05;;;7.53;;
35239;SDS011;21376;50.954;4.716;2023-02-28T18:36:50;10.05;;;6.65;;
35239;SDS011;21376;50.954;4.716;2023-02-28T18:39:17;9.63;;;6.72;;
35239;SDS011;21376;50.954;4.716;2023-02-28T18:41:47;13.55;;;7.03;;
35239;SDS011;21376;50.954;4.716;2023-02-28T18:44:13;14.00;;;6.60;;
35239;SDS011;21376;50.954;4.716;2023-02-28T18:46:39;8.70;;;5.65;;
35239;SDS011;21376;50.954;4.716;2023-02-28T18:49:05;8.70;;;5.53;;
35239;SDS011;21376;50.954;4.716;2023-02-28T18:51:34;9.40;;;5.45;;
35239;SDS011;21376;50.954;4.716;2023-02-28T18:54:05;8.77;;;4.90;;
35239;SDS011;21376;50.954;4.716;2023-02-28T18:56:31;10.13;;;5.22;;
35239;SDS011;21376;50.954;4.716;2023-02-28T19:01:29;10.02;;;6.20;;
35239;SDS011;21376;50.954;4.716;2023-02-28T19:04:02;13.43;;;7.60;;
35239;SDS011;21376;50.954;4.716;2023-02-28T19:06:34;12.85;;;7.97;;
35239;SDS011;21376;50.954;4.716;2023-02-28T19:09:06;11.98;;;5.78;;
35239;SDS011;21376;50.954;4.716;2023-02-28T19:11:34;12.30;;;6.30;;
35239;SDS011;21376;50.954;4.716;2023-02-28T19:14:02;12.55;;;6.50;;
35239;SDS011;21376;50.954;4.716;2023-02-28T19:16:31;13.48;;;5.55;;
35239;SDS011;21376;50.954;4.716;2023-02-28T19:21:29;10.73;;;6.20;;
35239;SDS011;21376;50.954;4.716;2023-02-28T19:23:54;12.57;;;6.15;;
35239;SDS011;21376;50.954;4.716;2023-02-28T19:26:22;10.80;;;6.50;;
35239;SDS011;21376;50.954;4.716;2023-02-28T19:28:49;12.27;;;8.25;;
35239;SDS011;21376;50.954;4.716;2023-02-28T19:33:50;15.95;;;8.75;;
35239;SDS011;21376;50.954;4.716;2023-02-28T19:36:17;12.18;;;8.18;;
35239;SDS011;21376;50.954;4.716;2023-02-28T19:38:44;13.20;;;8.05;;
35239;SDS011;21376;50.954;4.716;2023-02-28T19:41:11;16.90;;;9.35;;
35239;SDS011;21376;50.954;4.716;2023-02-28T19:43:52;14.60;;;8.93;;
35239;SDS011;21376;50.954;4.716;2023-02-28T19:46:18;14.43;;;8.93;;
35239;SDS011;21376;50.954;4.716;2023-02-28T19:49:00;21.65;;;9.98;;
35239;SDS011;21376;50.954;4.716;2023-02-28T19:51:29;16.98;;;10.73;;
35239;SDS011;21376;50.954;4.716;2023-02-28T19:53:58;18.45;;;10.65;;
35239;SDS011;21376;50.954;4.716;2023-02-28T19:56:27;18.50;;;11.13;;
35239;SDS011;21376;50.954;4.716;2023-02-28T19:58:56;19.30;;;10.75;;
35239;SDS011;21376;50.954;4.716;2023-02-28T20:01:27;15.30;;;9.80;;
35239;SDS011;21376;50.954;4.716;2023-02-28T20:03:53;22.70;;;13.18;;
35239;SDS011;21376;50.954;4.716;2023-02-28T20:06:22;32.85;;;17.13;;
35239;SDS011;21376;50.954;4.716;2023-02-28T20:08:53;36.35;;;16.27;;
35239;SDS011;21376;50.954;4.716;2023-02-28T20:11:19;24.02;;;14.82;;
35239;SDS011;21376;50.954;4.716;2023-02-28T20:13:45;23.95;;;15.02;;
35239;SDS011;21376;50.954;4.716;2023-02-28T20:29:17;20.00;;;11.88;;
35239;SDS011;21376;50.954;4.716;2023-02-28T20:31:44;27.92;;;16.25;;
35239;SDS011;21376;50.954;4.716;2023-02-28T20:34:10;67.95;;;28.80;;
35239;SDS011;21376;50.954;4.716;2023-02-28T20:36:39;47.10;;;23.80;;
35239;SDS011;21376;50.954;4.716;2023-02-28T20:39:06;64.57;;;29.38;;
35239;SDS011;21376;50.954;4.716;2023-02-28T20:41:41;68.78;;;30.42;;
35239;SDS011;21376;50.954;4.716;2023-02-28T20:44:10;71.43;;;31.90;;
35239;SDS011;21376;50.954;4.716;2023-02-28T20:46:38;74.53;;;32.50;;
35239;SDS011;21376;50.954;4.716;2023-02-28T20:49:09;84.05;;;35.25;;
35239;SDS011;21376;50.954;4.716;2023-02-28T20:51:41;72.57;;;32.47;;
35239;SDS011;21376;50.954;4.716;2023-02-28T20:54:15;78.57;;;37.22;;